Disclaimer

Please do not use the information listed here in-flight or in-navigation, as they are not provided to us by the airports but are provided by volunteers, so they might be outdated.

Search


Regions


Airport information page

No radio frequency information is available.

Airport informations:
Latitude: 59° 24' 47.94" N
Longitude: 024° 49' 58.24" E
Elevation: 131 feet - 40 meters
Operating hours: Remarks
Operating agency: Civil government, landing fees and diplomatic clearance may be required
Timezone: UTC+2(+3DT) - Last Sunday in March to last Sunday in October
Fuel: Jet A1, without icing nhibitor.

100/130 MIL Spec, low lead, aviation gasoline (BLUE)

Runway information:
08/26 - 10072 x 148 feet< - >3070 x 45 meters

Recent METARs:
EETN 192050Z 14004KT 9999 OVC023 01/M01 Q1037 R08/290195 NOSIG
EETN 192120Z 15003KT 9999 OVC023 01/M02 Q1037 R08/290195 NOSIG
EETN 192150Z 13003KT 9999 OVC023 01/M01 Q1036 R08/290195 NOSIG

Airport on the map: